LTBALTBU

Guest
Details From LTBA - Istanbul Ataturk
To LTBU - Corlu
Flight Number -
Tags Routegen Generated
Created
Modified
Stats Distance 46 nm / 84 km
Max Altitude 100 ft / 30 m
Waypoints 5
Social Downloads 7
Likes 0
Share VATSIM

Download

Looking for another format? Having issues loading an existing format? Contact us
Advertisement - Login to hide

Notes

Departing runway 35 LTBA. Arriving runway 4 LTBU.

Route

LTBA +41.07_+028.80 +41.13_+028.40 +41.19_+028.01 LTBU

ID Type Via Altitude Latitude Longitude Leg Dist Tot Dist Heading (true) Name
O LTBA APT - 0 ft / 0 m 40.99636˚ 28.80603˚ - 0 nm - -
+41.07_+028.80 LATLON - 100 ft / 30 m 41.06870˚ 28.80350˚ 4 nm 4 nm 358° / 358° -
+41.13_+028.40 LATLON - 100 ft / 30 m 41.13144˚ 28.40455˚ 18 nm 22 nm 282° / 282° -
+41.19_+028.01 LATLON - 100 ft / 30 m 41.19418˚ 28.00560˚ 18 nm 41 nm 282° / 282° -
O LTBU APT - 0 ft / 0 m 41.14708˚ 27.93261˚ 4 nm 45 nm 229° / 229° -

Altitude Profile

Advertisement - Login to hide

LTBA

Details ICAO LTBA (IST)
Name Istanbul Ataturk
Region Turkey
Timezone Europe/Istanbul (UTC+3.0)
Stats Elevation 163 ft / 50 m (AMSL)
Location 40.979136° 28.812832°
Runways 3
Magnetic Variation 5.429° E

METAR

LTBA 141250Z 20009G19KT 170V240 CAVOK 16/10 Q1013 NOSIG

Decode

TAF

Not found

Departure Runways

ID Width Length Bearing (true) Bearing (mag) Surface Threshold Offset Overrun Length
05 197 ft / 60 m 8,514 ft / 2,595 m 58.64° 53.21° Concrete 400 ft / 122 m 197 ft / 60 m
17L 148 ft / 45 m 9,820 ft / 2,993 m 178.48° 173.05° Concrete 0 ft / 0 m 197 ft / 60 m
17R 148 ft / 45 m 9,858 ft / 3,005 m 178.49° 173.06° Concrete 0 ft / 0 m 0 ft / 0 m
23 197 ft / 60 m 8,514 ft / 2,595 m 238.65° 233.22° Concrete 0 ft / 0 m 197 ft / 60 m
35L 148 ft / 45 m 9,858 ft / 3,005 m 358.49° 353.06° Concrete 0 ft / 0 m 200 ft / 61 m
35R 148 ft / 45 m 9,820 ft / 2,993 m 358.48° 353.05° Concrete 0 ft / 0 m 197 ft / 60 m

LTBU

Details ICAO LTBU (TEQ)
Name CORLU
Region Turkey
Timezone Europe/Istanbul (UTC+3.0)
Stats Elevation 574 ft / 175 m (AMSL)
Location 41.138250° 27.918944°
Runways 1
Magnetic Variation 5.345° E

METAR

LTBU 141250Z 19013KT 9999 SCT035 15/10 Q1012

Decode

TAF

Not found

Destination Runways

ID Width Length Bearing (true) Bearing (mag) Surface Threshold Offset Overrun Length
05 148 ft / 45 m 9,899 ft / 3,017 m 49.36° 44.01° Concrete 0 ft / 0 m 458 ft / 140 m
23 148 ft / 45 m 9,899 ft / 3,017 m 229.37° 224.02° Concrete 0 ft / 0 m 495 ft / 151 m

Approach Navaids

Runway Type Ident Frequency Range Bearing (true) Bearing (mag) Slope Elevation
05 Localiser ICRL 110.50 MHz 18 nm / 33 km 49.29° 43.94° - 574 ft / 175 m (AMSL)
05 Glidescope ICRL 110.50 MHz 10 nm / 19 km 49.36° 44.02° 3.00° 574 ft / 175 m (AMSL)

Popular Alternatives